createdAt,value
2018-04-26T00:01:50.696Z,7.00
2018-04-26T00:04:16.548Z,7.70
2018-04-26T00:06:42.384Z,6.90
2018-04-26T00:09:08.264Z,7.13
2018-04-26T00:11:34.109Z,7.63
2018-04-26T00:13:59.983Z,7.23
2018-04-26T00:16:25.867Z,6.97
2018-04-26T00:18:51.718Z,7.27
2018-04-26T00:21:17.565Z,7.50
2018-04-26T00:23:43.400Z,8.43
2018-04-26T00:26:09.241Z,8.03
2018-04-26T00:28:35.076Z,7.90
2018-04-26T00:31:00.922Z,7.10
2018-04-26T00:33:26.779Z,8.57
2018-04-26T00:35:52.617Z,7.20
2018-04-26T00:38:18.455Z,8.03
2018-04-26T00:40:44.302Z,7.77
2018-04-26T00:43:10.184Z,8.43
2018-04-26T00:45:36.030Z,8.37
2018-04-26T00:48:01.969Z,8.47
2018-04-26T00:50:27.786Z,9.07
2018-04-26T00:52:53.631Z,7.80
2018-04-26T00:55:19.503Z,7.53
2018-04-26T00:57:45.349Z,7.87
2018-04-26T01:00:11.216Z,8.87
2018-04-26T01:02:37.046Z,9.90
2018-04-26T01:05:02.923Z,11.40
2018-04-26T01:07:28.786Z,9.17
2018-04-26T01:09:54.636Z,10.40
2018-04-26T01:12:20.486Z,11.07
2018-04-26T01:14:46.317Z,10.20
2018-04-26T01:17:12.170Z,10.70
2018-04-26T01:19:38.010Z,10.23
2018-04-26T01:22:03.858Z,11.07
2018-04-26T01:24:29.722Z,9.83
2018-04-26T01:26:55.585Z,9.60
2018-04-26T01:29:21.465Z,9.63
2018-04-26T01:31:47.311Z,9.67
2018-04-26T01:34:13.150Z,8.40
2018-04-26T01:36:51.342Z,9.50
2018-04-26T01:39:17.198Z,9.70
2018-04-26T01:41:43.079Z,10.23
2018-04-26T01:44:08.953Z,9.03
2018-04-26T01:46:34.803Z,9.30
2018-04-26T01:49:00.657Z,9.03
2018-04-26T01:51:26.503Z,8.70
2018-04-26T01:53:52.380Z,8.90
2018-04-26T01:56:18.222Z,8.50
2018-04-26T01:58:44.063Z,8.30
2018-04-26T02:01:09.931Z,8.27
2018-04-26T02:03:35.793Z,8.50
2018-04-26T02:06:01.618Z,7.83
2018-04-26T02:08:27.480Z,8.67
2018-04-26T02:10:53.357Z,9.27
2018-04-26T02:13:19.181Z,8.63
2018-04-26T02:15:45.062Z,8.13
2018-04-26T02:18:10.909Z,8.50
2018-04-26T02:20:36.764Z,8.67
2018-04-26T02:23:02.640Z,9.57
2018-04-26T02:25:29.627Z,8.47
2018-04-26T02:27:55.496Z,8.53
2018-04-26T02:30:21.379Z,8.80
2018-04-26T02:32:47.223Z,8.70
2018-04-26T02:35:13.036Z,8.03
2018-04-26T02:37:38.878Z,9.30
2018-04-26T02:40:04.739Z,7.20
2018-04-26T02:42:30.587Z,8.17
2018-04-26T02:44:56.447Z,8.10
2018-04-26T02:47:22.314Z,7.70
2018-04-26T02:49:48.160Z,8.27
2018-04-26T02:52:13.993Z,7.83
2018-04-26T02:54:39.834Z,8.00
2018-04-26T02:57:05.685Z,8.40
2018-04-26T02:59:31.626Z,7.87
2018-04-26T03:01:57.426Z,8.20
2018-04-26T03:04:23.254Z,8.33
2018-04-26T03:06:49.080Z,7.90
2018-04-26T03:09:14.927Z,7.83
2018-04-26T03:11:40.803Z,7.73
2018-04-26T03:14:06.670Z,8.10
2018-04-26T03:16:32.527Z,7.90
2018-04-26T03:18:58.381Z,8.23
2018-04-26T03:21:24.229Z,8.43
2018-04-26T03:23:50.084Z,9.67
2018-04-26T03:26:15.927Z,9.47
2018-04-26T03:28:41.792Z,9.97
2018-04-26T03:31:07.744Z,10.70
2018-04-26T03:33:33.505Z,11.50
2018-04-26T03:35:59.358Z,11.37
2018-04-26T03:38:25.202Z,12.40
2018-04-26T03:40:51.061Z,13.03
2018-04-26T03:43:17.719Z,13.23
2018-04-26T03:45:43.584Z,12.60
2018-04-26T03:48:09.422Z,13.73
2018-04-26T03:50:35.280Z,13.17
2018-04-26T03:53:01.127Z,13.67
2018-04-26T03:55:26.973Z,13.20
2018-04-26T03:57:52.798Z,14.00
2018-04-26T04:00:30.919Z,15.90
2018-04-26T04:03:09.017Z,16.13
2018-04-26T04:05:40.902Z,15.43
2018-04-26T04:08:06.759Z,15.93
2018-04-26T04:10:32.602Z,16.63
2018-04-26T04:12:58.460Z,16.60
2018-04-26T04:15:24.289Z,15.27
2018-04-26T04:17:50.150Z,16.53
2018-04-26T04:20:15.977Z,17.17
2018-04-26T04:22:41.859Z,17.70
2018-04-26T04:25:07.715Z,18.00
2018-04-26T04:27:33.577Z,16.90
2018-04-26T04:30:00.257Z,17.77
2018-04-26T04:32:26.093Z,17.20
2018-04-26T04:34:51.926Z,17.30
2018-04-26T04:37:17.775Z,16.80
2018-04-26T04:39:43.630Z,16.53
2018-04-26T04:42:09.509Z,15.90
2018-04-26T04:44:35.378Z,17.87
2018-04-26T04:47:01.239Z,15.73
2018-04-26T04:49:27.074Z,16.23
2018-04-26T04:51:52.922Z,16.63
2018-04-26T04:54:18.759Z,14.90
2018-04-26T04:56:44.619Z,14.80
2018-04-26T04:59:10.492Z,14.93
2018-04-26T05:01:36.354Z,13.23
2018-04-26T05:04:02.205Z,13.67
2018-04-26T05:06:28.071Z,13.57
2018-04-26T05:08:53.904Z,13.77
2018-04-26T05:11:19.776Z,12.23
2018-04-26T05:13:45.639Z,13.20
2018-04-26T05:16:11.466Z,12.53
2018-04-26T05:18:37.335Z,12.40
2018-04-26T05:21:03.183Z,13.33
2018-04-26T05:23:29.030Z,12.37
2018-04-26T05:25:54.872Z,11.67
2018-04-26T05:28:20.768Z,12.17
2018-04-26T05:30:46.614Z,11.60
2018-04-26T05:33:12.498Z,12.43
2018-04-26T05:35:38.352Z,10.30
2018-04-26T05:38:04.207Z,10.53
2018-04-26T05:40:30.159Z,10.03
2018-04-26T05:42:55.959Z,12.50
2018-04-26T05:45:21.827Z,11.60
2018-04-26T05:47:47.677Z,11.97
2018-04-26T05:50:13.577Z,12.03
2018-04-26T05:52:39.405Z,11.93
2018-04-26T05:55:05.260Z,12.07
2018-04-26T05:57:31.113Z,10.93
2018-04-26T05:59:56.986Z,11.30
2018-04-26T06:02:22.833Z,11.90
2018-04-26T06:04:48.682Z,11.50
2018-04-26T06:07:14.534Z,14.03
2018-04-26T06:09:40.388Z,13.67
2018-04-26T06:12:06.256Z,14.03
2018-04-26T06:14:32.119Z,13.70
2018-04-26T06:16:58.030Z,15.07
2018-04-26T06:19:23.879Z,15.70
2018-04-26T06:21:49.716Z,15.30
2018-04-26T06:24:15.574Z,15.93
2018-04-26T06:26:41.432Z,14.33
2018-04-26T06:29:07.298Z,12.93
2018-04-26T06:31:33.134Z,8.37
2018-04-26T06:33:59.004Z,6.80
2018-04-26T06:36:24.855Z,6.20
2018-04-26T06:38:50.717Z,5.43
2018-04-26T06:41:16.559Z,5.60
2018-04-26T06:43:42.410Z,5.10
2018-04-26T06:46:08.264Z,6.40
2018-04-26T06:48:34.144Z,4.67
2018-04-26T06:50:59.980Z,5.47
2018-04-26T06:53:25.886Z,4.80
2018-04-26T06:55:51.703Z,6.07
2018-04-26T06:58:17.540Z,5.23
2018-04-26T07:00:43.404Z,5.90
2018-04-26T07:03:09.269Z,4.70
2018-04-26T07:05:36.695Z,5.03
2018-04-26T07:08:02.542Z,5.13
2018-04-26T07:10:28.397Z,5.30
2018-04-26T07:12:54.237Z,4.67
2018-04-26T07:15:20.096Z,5.13
2018-04-26T07:17:45.956Z,5.50
2018-04-26T07:20:11.799Z,5.10
2018-04-26T07:22:37.669Z,4.23
2018-04-26T07:25:03.507Z,4.03
2018-04-26T07:27:29.367Z,4.03
2018-04-26T07:29:55.252Z,3.77
2018-04-26T07:32:21.087Z,4.40
2018-04-26T07:34:46.964Z,3.73
2018-04-26T07:37:12.799Z,3.77
2018-04-26T07:39:38.695Z,3.50
2018-04-26T07:42:04.559Z,3.80
2018-04-26T07:44:30.411Z,3.93
2018-04-26T07:46:56.321Z,3.90
2018-04-26T07:49:22.143Z,3.97
2018-04-26T07:51:47.992Z,3.60
2018-04-26T07:54:13.863Z,4.30
2018-04-26T07:56:39.719Z,4.00
2018-04-26T07:59:05.559Z,4.13
2018-04-26T08:01:31.440Z,4.10
2018-04-26T08:03:57.273Z,4.27
2018-04-26T08:06:23.121Z,3.97
2018-04-26T08:08:48.968Z,4.07
2018-04-26T08:11:14.818Z,3.90
2018-04-26T08:13:40.730Z,3.40
2018-04-26T08:16:06.583Z,3.70
2018-04-26T08:18:32.429Z,3.40
2018-04-26T08:20:58.356Z,3.40
2018-04-26T08:23:24.196Z,3.30
2018-04-26T08:25:50.037Z,3.63
2018-04-26T08:28:15.882Z,3.53
2018-04-26T08:30:41.732Z,3.70
2018-04-26T08:33:08.425Z,3.60
2018-04-26T08:35:34.283Z,3.43
2018-04-26T08:38:00.153Z,3.20
2018-04-26T08:40:26.022Z,3.30
2018-04-26T08:42:51.878Z,3.80
2018-04-26T08:45:17.731Z,3.80
2018-04-26T08:47:43.598Z,3.77
2018-04-26T08:50:09.441Z,3.50
2018-04-26T08:52:35.287Z,4.03
2018-04-26T08:55:01.116Z,3.90
2018-04-26T08:57:26.960Z,4.50
2018-04-26T08:59:52.833Z,3.80
2018-04-26T09:02:18.695Z,3.67
2018-04-26T09:04:44.570Z,3.87
2018-04-26T09:07:10.419Z,3.40
2018-04-26T09:09:36.268Z,3.93
2018-04-26T09:12:02.113Z,4.07
2018-04-26T09:14:27.946Z,4.07
2018-04-26T09:16:53.790Z,4.67
2018-04-26T09:19:19.643Z,4.57
2018-04-26T09:21:45.508Z,5.00
2018-04-26T09:24:11.351Z,4.97
2018-04-26T09:26:37.194Z,6.93
2018-04-26T09:29:03.036Z,7.10
2018-04-26T09:31:28.910Z,6.30
2018-04-26T09:33:54.734Z,4.60
2018-04-26T09:36:20.624Z,3.80
2018-04-26T09:38:46.554Z,3.40
2018-04-26T09:41:12.367Z,3.10
2018-04-26T09:43:38.237Z,2.97
2018-04-26T09:46:04.078Z,3.17
2018-04-26T09:48:29.930Z,2.70
2018-04-26T09:50:55.769Z,2.67
2018-04-26T09:53:21.606Z,2.87
2018-04-26T09:55:47.449Z,3.00
2018-04-26T09:58:13.300Z,4.00
2018-04-26T10:00:42.168Z,4.47
2018-04-26T10:03:08.877Z,5.00
2018-04-26T10:05:40.724Z,5.13
2018-04-26T10:08:06.553Z,5.97
2018-04-26T10:10:32.411Z,5.93
2018-04-26T10:12:58.251Z,5.57
2018-04-26T10:15:24.107Z,5.13
2018-04-26T10:17:49.943Z,5.30
2018-04-26T10:20:15.790Z,5.13
2018-04-26T10:22:41.641Z,5.27
2018-04-26T10:25:07.514Z,5.03
2018-04-26T10:27:33.336Z,5.10
2018-04-26T10:29:59.249Z,4.80
2018-04-26T10:32:25.076Z,4.83
2018-04-26T10:34:50.906Z,4.30
2018-04-26T10:37:16.759Z,4.97
2018-04-26T10:39:42.603Z,4.23
2018-04-26T10:42:08.461Z,4.37
2018-04-26T10:44:34.414Z,4.47
2018-04-26T10:47:00.360Z,4.50
2018-04-26T10:49:26.130Z,4.00
2018-04-26T10:51:52.002Z,3.43
2018-04-26T10:54:17.842Z,3.10
2018-04-26T10:56:43.683Z,3.10
2018-04-26T10:59:09.505Z,3.00
2018-04-26T11:01:35.367Z,3.17
2018-04-26T11:04:01.221Z,3.00
2018-04-26T11:06:27.072Z,3.70
2018-04-26T11:08:52.949Z,3.47
2018-04-26T11:11:18.802Z,2.80
2018-04-26T11:13:44.675Z,3.30
2018-04-26T11:16:10.538Z,2.97
2018-04-26T11:18:36.407Z,3.27
2018-04-26T11:21:02.253Z,3.33
2018-04-26T11:23:28.114Z,3.40
2018-04-26T11:25:53.963Z,3.07
2018-04-26T11:28:19.809Z,3.37
2018-04-26T11:30:45.661Z,3.50
2018-04-26T11:33:11.524Z,3.10
2018-04-26T11:35:37.402Z,3.57
2018-04-26T11:38:03.809Z,3.90
2018-04-26T11:40:29.654Z,3.90
2018-04-26T11:42:55.493Z,4.20
2018-04-26T11:45:21.352Z,3.70
2018-04-26T11:47:47.191Z,3.50
2018-04-26T11:50:13.043Z,3.40
2018-04-26T11:52:38.883Z,3.53
2018-04-26T11:55:04.746Z,3.20
2018-04-26T11:57:30.580Z,3.50
2018-04-26T11:59:56.415Z,3.60
2018-04-26T12:02:22.355Z,3.00
2018-04-26T12:04:48.120Z,3.40
2018-04-26T12:07:13.977Z,3.33
2018-04-26T12:09:39.843Z,3.00
2018-04-26T12:12:05.678Z,3.00
2018-04-26T12:14:31.526Z,3.40
2018-04-26T12:16:57.393Z,3.23
2018-04-26T12:19:23.204Z,2.67
2018-04-26T12:21:49.108Z,3.17
2018-04-26T12:24:14.956Z,3.50
2018-04-26T12:26:40.811Z,2.90
2018-04-26T12:29:06.671Z,2.80
2018-04-26T12:31:32.502Z,3.07
2018-04-26T12:33:58.355Z,2.53
2018-04-26T12:36:24.236Z,1.90
2018-04-26T12:38:50.074Z,1.60
2018-04-26T12:41:15.921Z,1.47
2018-04-26T12:43:41.779Z,1.53
2018-04-26T12:46:07.633Z,1.60
2018-04-26T12:48:33.508Z,1.30
2018-04-26T12:50:59.372Z,1.87
2018-04-26T12:53:25.248Z,2.20
2018-04-26T12:55:51.134Z,2.40
2018-04-26T12:58:17.112Z,2.10
2018-04-26T13:00:42.883Z,1.97
2018-04-26T13:03:08.743Z,2.70
2018-04-26T13:05:34.580Z,2.70
2018-04-26T13:08:00.515Z,2.50
2018-04-26T13:10:26.264Z,2.20
2018-04-26T13:12:52.645Z,2.20
2018-04-26T13:15:18.466Z,2.00
2018-04-26T13:17:44.334Z,2.00
2018-04-26T13:20:10.188Z,2.47
2018-04-26T13:22:36.082Z,2.50
2018-04-26T13:25:01.952Z,2.60
2018-04-26T13:27:27.824Z,2.40
2018-04-26T13:29:53.733Z,2.70
2018-04-26T13:32:19.540Z,2.37
2018-04-26T13:34:45.397Z,2.50
2018-04-26T13:37:11.268Z,2.20
2018-04-26T13:39:37.138Z,3.00
2018-04-26T13:42:02.988Z,2.50
2018-04-26T13:44:28.853Z,2.93
2018-04-26T13:46:54.717Z,3.10
2018-04-26T13:49:20.597Z,3.10
2018-04-26T13:51:46.450Z,3.40
2018-04-26T13:54:12.335Z,3.03
2018-04-26T13:56:38.182Z,2.80
2018-04-26T13:59:04.020Z,2.80
2018-04-26T14:01:29.862Z,2.40
2018-04-26T14:03:55.728Z,3.03
2018-04-26T14:06:21.603Z,2.67
2018-04-26T14:08:47.469Z,2.93
2018-04-26T14:11:13.363Z,2.60
2018-04-26T14:13:39.195Z,2.47
2018-04-26T14:16:05.043Z,2.87
2018-04-26T14:18:30.887Z,2.77
2018-04-26T14:20:56.771Z,2.70
2018-04-26T14:23:22.678Z,3.00
2018-04-26T14:25:48.513Z,2.70
2018-04-26T14:28:14.365Z,3.30
2018-04-26T14:30:40.227Z,3.50
2018-04-26T14:33:06.101Z,2.77
2018-04-26T14:35:32.013Z,2.83
2018-04-26T14:37:57.881Z,2.90
2018-04-26T14:40:23.744Z,2.93
2018-04-26T14:42:49.634Z,2.70
2018-04-26T14:45:15.484Z,2.80
2018-04-26T14:47:41.326Z,2.87
2018-04-26T14:50:07.178Z,3.10
2018-04-26T14:52:33.214Z,2.90
2018-04-26T14:54:59.103Z,3.73
2018-04-26T14:57:24.962Z,3.93
2018-04-26T14:59:51.501Z,3.60
2018-04-26T15:02:17.343Z,3.30
2018-04-26T15:04:43.201Z,4.07
2018-04-26T15:07:09.029Z,4.40
2018-04-26T15:09:34.912Z,3.70
2018-04-26T15:12:00.776Z,3.50
2018-04-26T15:14:26.658Z,3.93
2018-04-26T15:16:52.562Z,3.77
2018-04-26T15:19:18.450Z,3.70
2018-04-26T15:21:44.447Z,3.37
2018-04-26T15:24:10.299Z,2.80
2018-04-26T15:26:36.222Z,2.93
2018-04-26T15:29:02.099Z,2.60
2018-04-26T15:31:27.964Z,2.40
2018-04-26T15:33:53.836Z,2.37
2018-04-26T15:36:19.717Z,1.90
2018-04-26T15:38:45.620Z,2.00
2018-04-26T15:41:11.490Z,1.67
2018-04-26T15:43:37.371Z,2.40
2018-04-26T15:46:03.226Z,2.20
2018-04-26T15:48:29.122Z,1.97
2018-04-26T15:50:54.992Z,2.30
2018-04-26T15:53:33.222Z,1.97
2018-04-26T15:56:12.034Z,2.43
2018-04-26T16:02:11.534Z,2.90
2018-04-26T16:04:49.715Z,3.40
2018-04-26T16:07:48.753Z,3.70
2018-04-26T16:10:27.142Z,3.07
2018-04-26T16:13:11.610Z,2.53
2018-04-26T16:15:56.093Z,2.73
2018-04-26T16:18:40.764Z,2.20
2018-04-26T16:21:25.332Z,2.20
2018-04-26T16:24:03.648Z,1.77
2018-04-26T16:26:48.075Z,2.00
2018-04-26T16:29:32.432Z,1.60
2018-04-26T16:32:17.072Z,2.30
2018-04-26T16:34:55.723Z,1.80
2018-04-26T16:37:40.023Z,1.50
2018-04-26T16:40:06.019Z,1.80
2018-04-26T16:42:31.909Z,1.60
2018-04-26T16:44:57.749Z,1.80
2018-04-26T16:47:23.674Z,1.70
2018-04-26T16:49:49.623Z,2.20
2018-04-26T16:52:16.180Z,2.10
2018-04-26T16:54:42.062Z,2.47
2018-04-26T16:57:07.950Z,2.67
2018-04-26T16:59:34.415Z,2.60
2018-04-26T17:02:00.295Z,2.60
2018-04-26T17:04:26.270Z,2.83
2018-04-26T17:06:52.127Z,3.50
2018-04-26T17:09:18.013Z,3.40
2018-04-26T17:11:44.096Z,3.10
2018-04-26T17:14:10.003Z,3.37
2018-04-26T17:16:35.905Z,3.87
2018-04-26T17:19:01.839Z,3.20
2018-04-26T17:21:27.707Z,3.43
2018-04-26T17:23:53.597Z,3.40
2018-04-26T17:26:19.513Z,3.70
2018-04-26T17:28:45.394Z,3.57
2018-04-26T17:31:11.290Z,3.60
2018-04-26T17:33:37.207Z,3.03
2018-04-26T17:36:03.171Z,3.20
2018-04-26T17:38:29.070Z,3.67
2018-04-26T17:40:54.929Z,3.00
2018-04-26T17:43:20.897Z,3.20
2018-04-26T17:45:46.830Z,2.80
2018-04-26T17:48:12.725Z,3.13
2018-04-26T17:50:38.590Z,2.90
2018-04-26T17:53:04.482Z,2.70
2018-04-26T17:55:30.382Z,2.63
2018-04-26T17:57:56.295Z,2.90
2018-04-26T18:00:22.254Z,2.80
2018-04-26T18:02:48.201Z,3.10
2018-04-26T18:05:14.112Z,2.83
2018-04-26T18:07:54.998Z,2.70
2018-04-26T18:10:21.820Z,3.33
2018-04-26T18:12:47.844Z,2.80
2018-04-26T18:15:13.873Z,3.57
2018-04-26T18:17:39.902Z,3.20
2018-04-26T18:20:08.584Z,2.90
2018-04-26T18:22:31.894Z,3.00
2018-04-26T18:24:58.446Z,2.50
2018-04-26T18:27:24.379Z,2.47
2018-04-26T18:29:50.298Z,2.30
2018-04-26T18:32:17.191Z,2.67
2018-04-26T18:34:43.104Z,2.50
2018-04-26T18:37:09.473Z,2.60
2018-04-26T18:39:35.439Z,2.60
2018-04-26T18:42:02.224Z,2.67
2018-04-26T18:44:28.156Z,3.10
2018-04-26T18:46:54.189Z,3.73
2018-04-26T18:49:20.066Z,2.90
2018-04-26T18:51:46.024Z,3.10
2018-04-26T18:54:11.990Z,3.23
2018-04-26T18:56:37.983Z,3.10
2018-04-26T18:59:03.829Z,3.13
2018-04-26T19:01:30.513Z,3.23
2018-04-26T19:03:56.493Z,3.47
2018-04-26T19:06:23.074Z,3.30
2018-04-26T19:08:48.953Z,4.00
2018-04-26T19:11:14.866Z,3.73
2018-04-26T19:13:40.944Z,3.60
2018-04-26T19:16:06.957Z,3.40
2018-04-26T19:18:32.914Z,3.70
2018-04-26T19:20:58.852Z,3.97
2018-04-26T19:23:24.764Z,3.90
2018-04-26T19:25:50.674Z,4.20
2018-04-26T19:28:17.571Z,3.60
2018-04-26T19:30:43.433Z,4.10
2018-04-26T19:33:10.109Z,3.83
2018-04-26T19:35:36.033Z,4.20
2018-04-26T19:38:02.031Z,4.40
2018-04-26T19:40:27.970Z,3.90
2018-04-26T19:42:53.857Z,3.40
2018-04-26T19:45:20.609Z,3.87
2018-04-26T19:47:46.530Z,4.90
2018-04-26T19:50:14.005Z,4.13
2018-04-26T19:52:39.888Z,3.90
2018-04-26T19:55:05.797Z,3.80
2018-04-26T19:57:31.660Z,4.00
2018-04-26T19:59:57.525Z,3.93
2018-04-26T20:02:23.486Z,3.97
2018-04-26T20:04:49.415Z,3.57
2018-04-26T20:07:15.311Z,3.77
2018-04-26T20:09:41.557Z,3.47
2018-04-26T20:12:07.422Z,3.33
2018-04-26T20:14:33.313Z,3.70
2018-04-26T20:16:59.201Z,3.00
2018-04-26T20:19:25.083Z,3.40
2018-04-26T20:21:51.708Z,3.40
2018-04-26T20:24:18.377Z,2.97
2018-04-26T20:26:44.263Z,3.10
2018-04-26T20:29:10.178Z,3.00
2018-04-26T20:31:36.055Z,3.00
2018-04-26T20:34:01.947Z,3.10
2018-04-26T20:36:28.011Z,2.80
2018-04-26T20:38:54.040Z,2.73
2018-04-26T20:41:19.943Z,2.90
2018-04-26T20:43:45.852Z,2.73
2018-04-26T20:46:11.701Z,3.27
2018-04-26T20:48:40.444Z,3.80
2018-04-26T20:51:06.327Z,3.47
2018-04-26T20:53:32.218Z,3.20
2018-04-26T20:55:58.108Z,3.13
2018-04-26T20:58:23.954Z,2.90
2018-04-26T21:00:49.892Z,2.77
2018-04-26T21:03:15.802Z,2.77
2018-04-26T21:05:41.712Z,2.93
2018-04-26T21:08:07.684Z,3.00
2018-04-26T21:10:33.558Z,2.93
2018-04-26T21:12:59.460Z,2.73
2018-04-26T21:15:25.322Z,3.20
2018-04-26T21:17:51.244Z,3.00
2018-04-26T21:20:17.086Z,3.10
2018-04-26T21:22:42.936Z,3.47
2018-04-26T21:25:08.817Z,3.00
2018-04-26T21:27:34.668Z,3.20
2018-04-26T21:30:00.536Z,2.90
2018-04-26T21:32:26.405Z,3.40
2018-04-26T21:34:52.257Z,3.20
2018-04-26T21:37:18.142Z,3.40
2018-04-26T21:39:44.014Z,3.57
2018-04-26T21:42:09.887Z,3.57
2018-04-26T21:44:35.777Z,3.67
2018-04-26T21:47:01.602Z,3.40
2018-04-26T21:49:27.407Z,3.90
2018-04-26T21:51:59.569Z,3.30
2018-04-26T21:54:31.680Z,4.37
2018-04-26T21:57:03.628Z,3.80
2018-04-26T21:59:35.592Z,4.73
2018-04-26T22:02:07.533Z,3.70
2018-04-26T22:04:39.402Z,4.20
2018-04-26T22:07:05.249Z,3.80
2018-04-26T22:09:31.114Z,3.97
2018-04-26T22:11:56.955Z,4.10
2018-04-26T22:14:22.879Z,4.33
2018-04-26T22:16:48.682Z,4.33
2018-04-26T22:19:14.538Z,4.23
2018-04-26T22:21:40.399Z,4.07
2018-04-26T22:24:06.267Z,4.20
2018-04-26T22:26:32.119Z,5.30
2018-04-26T22:28:57.963Z,5.50
2018-04-26T22:31:23.850Z,5.07
2018-04-26T22:33:49.693Z,5.30
2018-04-26T22:36:15.578Z,5.20
2018-04-26T22:38:41.448Z,4.80
2018-04-26T22:41:07.304Z,5.47
2018-04-26T22:43:33.168Z,4.57
2018-04-26T22:45:59.013Z,5.13
2018-04-26T22:48:24.880Z,5.57
2018-04-26T22:50:50.743Z,6.30
2018-04-26T22:53:16.604Z,6.23
2018-04-26T22:55:42.440Z,5.77
2018-04-26T22:58:08.303Z,5.37
2018-04-26T23:00:34.252Z,5.87
2018-04-26T23:03:00.123Z,6.40
2018-04-26T23:05:25.960Z,6.37
2018-04-26T23:07:51.800Z,6.10
2018-04-26T23:10:17.664Z,7.40
2018-04-26T23:12:43.516Z,7.07
2018-04-26T23:15:09.412Z,7.37
2018-04-26T23:17:35.237Z,8.27
2018-04-26T23:20:01.098Z,7.07
2018-04-26T23:22:26.943Z,7.87
2018-04-26T23:24:52.806Z,7.43
2018-04-26T23:27:18.635Z,7.00
2018-04-26T23:29:44.507Z,7.40
2018-04-26T23:32:10.359Z,7.63
2018-04-26T23:34:36.219Z,7.37
2018-04-26T23:37:02.903Z,7.20
2018-04-26T23:39:28.733Z,7.83
2018-04-26T23:41:54.596Z,8.33
2018-04-26T23:44:20.457Z,8.27
2018-04-26T23:46:46.311Z,8.10
2018-04-26T23:49:12.162Z,7.20
2018-04-26T23:51:37.985Z,8.40
2018-04-26T23:54:03.832Z,8.17
2018-04-26T23:56:29.684Z,7.17
2018-04-26T23:58:55.589Z,9.33
